sensor_id;sensor_type;location;lat;lon;timestamp;pressure;altitude;pressure_sealevel;temperature;humidity
48622;BME280;34421;48.944;9.460;2022-11-23T00:01:01;97198.28;;;5.36;73.36
48622;BME280;34421;48.944;9.460;2022-11-23T00:03:34;97198.28;;;5.36;73.00
48622;BME280;34421;48.944;9.460;2022-11-23T00:06:01;97205.16;;;5.37;73.07
48622;BME280;34421;48.944;9.460;2022-11-23T00:08:26;97197.66;;;5.34;73.30
48622;BME280;34421;48.944;9.460;2022-11-23T00:10:51;97204.34;;;5.37;74.11
48622;BME280;34421;48.944;9.460;2022-11-23T00:13:16;97206.38;;;5.35;73.48
48622;BME280;34421;48.944;9.460;2022-11-23T00:15:42;97203.97;;;5.33;73.43
48622;BME280;34421;48.944;9.460;2022-11-23T00:18:07;97204.56;;;5.29;73.65
48622;BME280;34421;48.944;9.460;2022-11-23T00:20:32;97196.88;;;5.27;72.67
48622;BME280;34421;48.944;9.460;2022-11-23T00:22:58;97199.94;;;5.24;72.89
48622;BME280;34421;48.944;9.460;2022-11-23T00:25:23;97203.19;;;5.19;73.42
48622;BME280;34421;48.944;9.460;2022-11-23T00:27:48;97194.66;;;5.17;73.39
48622;BME280;34421;48.944;9.460;2022-11-23T00:30:14;97198.72;;;5.13;73.62
48622;BME280;34421;48.944;9.460;2022-11-23T00:32:39;97203.19;;;5.13;72.86
48622;BME280;34421;48.944;9.460;2022-11-23T00:35:04;97205.03;;;5.12;73.68
48622;BME280;34421;48.944;9.460;2022-11-23T00:37:30;97207.44;;;5.14;73.34
48622;BME280;34421;48.944;9.460;2022-11-23T00:39:55;97222.28;;;5.08;74.22
48622;BME280;34421;48.944;9.460;2022-11-23T00:42:20;97217.81;;;5.02;73.34
48622;BME280;34421;48.944;9.460;2022-11-23T00:44:45;97207.69;;;4.99;73.34
48622;BME280;34421;48.944;9.460;2022-11-23T00:47:11;97215.41;;;5.00;73.58
48622;BME280;34421;48.944;9.460;2022-11-23T00:49:36;97215.78;;;5.04;72.32
48622;BME280;34421;48.944;9.460;2022-11-23T00:52:01;97223.13;;;5.09;73.44
48622;BME280;34421;48.944;9.460;2022-11-23T00:54:27;97219.84;;;5.13;73.33
48622;BME280;34421;48.944;9.460;2022-11-23T00:56:52;97216.16;;;5.14;73.93
48622;BME280;34421;48.944;9.460;2022-11-23T00:59:17;97217.81;;;5.15;73.09
48622;BME280;34421;48.944;9.460;2022-11-23T01:01:42;97219.44;;;5.16;73.04
48622;BME280;34421;48.944;9.460;2022-11-23T01:04:08;97219.44;;;5.16;73.46
48622;BME280;34421;48.944;9.460;2022-11-23T01:06:38;97216.41;;;5.13;72.83
48622;BME280;34421;48.944;9.460;2022-11-23T01:09:12;97215.75;;;5.17;74.00
48622;BME280;34421;48.944;9.460;2022-11-23T01:11:38;97216.56;;;5.24;73.42
48622;BME280;34421;48.944;9.460;2022-11-23T01:14:03;97221.63;;;5.33;72.24
48622;BME280;34421;48.944;9.460;2022-11-23T01:16:37;97227.09;;;5.38;73.72
48622;BME280;34421;48.944;9.460;2022-11-23T01:19:09;97221.81;;;5.38;72.23
48622;BME280;34421;48.944;9.460;2022-11-23T01:21:35;97214.69;;;5.38;73.38
48622;BME280;34421;48.944;9.460;2022-11-23T01:24:05;97215.94;;;5.36;72.53
48622;BME280;34421;48.944;9.460;2022-11-23T01:26:31;97215.09;;;5.42;73.00
48622;BME280;34421;48.944;9.460;2022-11-23T01:28:56;97223.59;;;5.44;73.16
48622;BME280;34421;48.944;9.460;2022-11-23T01:31:23;97220.97;;;5.44;72.65
48622;BME280;34421;48.944;9.460;2022-11-23T01:33:56;97218.13;;;5.45;72.74
48622;BME280;34421;48.944;9.460;2022-11-23T01:36:24;97224.03;;;5.47;72.71
48622;BME280;34421;48.944;9.460;2022-11-23T01:38:49;97221.38;;;5.47;73.79
48622;BME280;34421;48.944;9.460;2022-11-23T01:41:18;97228.91;;;5.51;72.88
48622;BME280;34421;48.944;9.460;2022-11-23T01:43:44;97228.66;;;5.52;73.55
48622;BME280;34421;48.944;9.460;2022-11-23T01:46:10;97233.13;;;5.52;73.37
48622;BME280;34421;48.944;9.460;2022-11-23T01:51:19;97236.81;;;5.51;72.79
48622;BME280;34421;48.944;9.460;2022-11-23T01:53:47;97235.56;;;5.53;73.26
48622;BME280;34421;48.944;9.460;2022-11-23T01:56:23;97237.81;;;5.56;73.22
48622;BME280;34421;48.944;9.460;2022-11-23T01:58:53;97236.97;;;5.56;73.46
48622;BME280;34421;48.944;9.460;2022-11-23T02:01:20;97236.16;;;5.55;73.60
48622;BME280;34421;48.944;9.460;2022-11-23T02:03:47;97240.84;;;5.60;74.12
48622;BME280;34421;48.944;9.460;2022-11-23T02:06:16;97238.41;;;5.58;73.69
48622;BME280;34421;48.944;9.460;2022-11-23T02:08:42;97243.69;;;5.52;74.29
48622;BME280;34421;48.944;9.460;2022-11-23T02:11:12;97243.31;;;5.48;74.27
48622;BME280;34421;48.944;9.460;2022-11-23T02:13:38;97249.59;;;5.47;74.18
48622;BME280;34421;48.944;9.460;2022-11-23T02:16:04;97241.09;;;5.45;72.85
48622;BME280;34421;48.944;9.460;2022-11-23T02:18:31;97239.44;;;5.44;74.00
48622;BME280;34421;48.944;9.460;2022-11-23T02:20:59;97236.41;;;5.40;73.92
48622;BME280;34421;48.944;9.460;2022-11-23T02:23:41;97243.72;;;5.38;72.98
48622;BME280;34421;48.944;9.460;2022-11-23T02:26:17;97238.06;;;5.35;72.69
48622;BME280;34421;48.944;9.460;2022-11-23T02:28:48;97244.56;;;5.25;73.78
48622;BME280;34421;48.944;9.460;2022-11-23T02:31:15;97242.38;;;5.16;73.89
48622;BME280;34421;48.944;9.460;2022-11-23T02:33:41;97249.09;;;5.12;73.46
48622;BME280;34421;48.944;9.460;2022-11-23T02:39:03;97250.09;;;5.04;73.14
48622;BME280;34421;48.944;9.460;2022-11-23T02:41:42;97255.78;;;5.01;73.77
48622;BME280;34421;48.944;9.460;2022-11-23T02:46:42;97246.84;;;5.02;73.72
48622;BME280;34421;48.944;9.460;2022-11-23T02:49:07;97246.25;;;5.07;73.21
48622;BME280;34421;48.944;9.460;2022-11-23T02:51:32;97250.50;;;5.08;72.59
48622;BME280;34421;48.944;9.460;2022-11-23T02:53:58;97247.03;;;5.07;73.44
48622;BME280;34421;48.944;9.460;2022-11-23T02:56:23;97250.31;;;5.09;73.07
48622;BME280;34421;48.944;9.460;2022-11-23T02:58:48;97245.03;;;5.09;72.54
48622;BME280;34421;48.944;9.460;2022-11-23T03:01:13;97248.88;;;5.13;73.08
48622;BME280;34421;48.944;9.460;2022-11-23T03:03:39;97255.16;;;5.19;74.28
48622;BME280;34421;48.944;9.460;2022-11-23T03:06:04;97258.19;;;5.22;72.87
48622;BME280;34421;48.944;9.460;2022-11-23T03:08:29;97255.13;;;5.25;72.49
48622;BME280;34421;48.944;9.460;2022-11-23T03:10:55;97255.34;;;5.24;73.42
48622;BME280;34421;48.944;9.460;2022-11-23T03:13:20;97252.50;;;5.25;73.50
48622;BME280;34421;48.944;9.460;2022-11-23T03:15:45;97259.00;;;5.30;73.75
48622;BME280;34421;48.944;9.460;2022-11-23T03:18:10;97250.25;;;5.29;73.81
48622;BME280;34421;48.944;9.460;2022-11-23T03:20:36;97247.00;;;5.34;73.14
48622;BME280;34421;48.944;9.460;2022-11-23T03:23:01;97252.25;;;5.40;74.36
48622;BME280;34421;48.944;9.460;2022-11-23T03:25:26;97251.66;;;5.45;73.17
48622;BME280;34421;48.944;9.460;2022-11-23T03:27:52;97251.44;;;5.46;73.02
48622;BME280;34421;48.944;9.460;2022-11-23T03:30:17;97255.47;;;5.49;74.46
48622;BME280;34421;48.944;9.460;2022-11-23T03:32:42;97257.72;;;5.52;73.20
48622;BME280;34421;48.944;9.460;2022-11-23T03:35:08;97248.97;;;5.52;73.49
48622;BME280;34421;48.944;9.460;2022-11-23T03:37:33;97253.47;;;5.51;74.51
48622;BME280;34421;48.944;9.460;2022-11-23T03:39:59;97253.47;;;5.51;73.25
48622;BME280;34421;48.944;9.460;2022-11-23T03:42:24;97246.75;;;5.48;74.43
48622;BME280;34421;48.944;9.460;2022-11-23T03:44:49;97243.31;;;5.48;73.46
48622;BME280;34421;48.944;9.460;2022-11-23T03:47:14;97239.88;;;5.47;73.22
48622;BME280;34421;48.944;9.460;2022-11-23T03:49:40;97252.22;;;5.47;74.54
48622;BME280;34421;48.944;9.460;2022-11-23T03:52:06;97245.53;;;5.51;73.92
48622;BME280;34421;48.944;9.460;2022-11-23T03:54:31;97243.47;;;5.53;74.53
48622;BME280;34421;48.944;9.460;2022-11-23T03:56:56;97242.47;;;5.54;74.31
48622;BME280;34421;48.944;9.460;2022-11-23T03:59:21;97245.72;;;5.56;73.92
48622;BME280;34421;48.944;9.460;2022-11-23T04:01:47;97238.81;;;5.55;73.31
48622;BME280;34421;48.944;9.460;2022-11-23T04:04:12;97239.63;;;5.56;74.38
48622;BME280;34421;48.944;9.460;2022-11-23T04:06:37;97243.09;;;5.56;74.29
48622;BME280;34421;48.944;9.460;2022-11-23T04:09:03;97239.63;;;5.56;73.23
48622;BME280;34421;48.944;9.460;2022-11-23T04:11:28;97238.81;;;5.55;73.61
48622;BME280;34421;48.944;9.460;2022-11-23T04:13:53;97235.56;;;5.53;74.67
48622;BME280;34421;48.944;9.460;2022-11-23T04:16:19;97229.47;;;5.53;74.73
48622;BME280;34421;48.944;9.460;2022-11-23T04:18:44;97230.09;;;5.55;74.67
48622;BME280;34421;48.944;9.460;2022-11-23T04:21:09;97233.91;;;5.59;74.89
48622;BME280;34421;48.944;9.460;2022-11-23T04:23:35;97234.34;;;5.62;74.31
48622;BME280;34421;48.944;9.460;2022-11-23T04:26:00;97230.25;;;5.66;73.67
48622;BME280;34421;48.944;9.460;2022-11-23T04:28:25;97230.84;;;5.68;73.70
48622;BME280;34421;48.944;9.460;2022-11-23T04:30:51;97228.78;;;5.70;73.49
48622;BME280;34421;48.944;9.460;2022-11-23T04:33:16;97234.88;;;5.71;74.89
48622;BME280;34421;48.944;9.460;2022-11-23T04:35:41;97227.56;;;5.73;74.89
48622;BME280;34421;48.944;9.460;2022-11-23T04:38:07;97237.13;;;5.74;74.19
48622;BME280;34421;48.944;9.460;2022-11-23T04:40:32;97235.31;;;5.75;74.08
48622;BME280;34421;48.944;9.460;2022-11-23T04:42:57;97229.00;;;5.76;74.00
48622;BME280;34421;48.944;9.460;2022-11-23T04:45:23;97229.59;;;5.78;73.94
48622;BME280;34421;48.944;9.460;2022-11-23T04:47:48;97232.25;;;5.78;75.06
48622;BME280;34421;48.944;9.460;2022-11-23T04:50:14;97226.97;;;5.78;75.27
48622;BME280;34421;48.944;9.460;2022-11-23T04:52:40;97231.00;;;5.80;75.26
48622;BME280;34421;48.944;9.460;2022-11-23T04:55:05;97225.31;;;5.83;74.82
48622;BME280;34421;48.944;9.460;2022-11-23T04:57:31;97226.91;;;5.84;75.19
48622;BME280;34421;48.944;9.460;2022-11-23T04:59:56;97222.66;;;5.83;74.02
48622;BME280;34421;48.944;9.460;2022-11-23T05:02:21;97219.19;;;5.83;75.04
48622;BME280;34421;48.944;9.460;2022-11-23T05:04:47;97224.47;;;5.83;74.09
48622;BME280;34421;48.944;9.460;2022-11-23T05:07:12;97219.63;;;5.80;75.40
48622;BME280;34421;48.944;9.460;2022-11-23T05:09:37;97209.03;;;5.80;74.72
48622;BME280;34421;48.944;9.460;2022-11-23T05:12:03;97212.53;;;5.80;74.59
48622;BME280;34421;48.944;9.460;2022-11-23T05:14:28;97211.50;;;5.81;75.44
48622;BME280;34421;48.944;9.460;2022-11-23T05:16:53;97222.88;;;5.82;74.21
48622;BME280;34421;48.944;9.460;2022-11-23T05:19:19;97220.84;;;5.84;74.41
48622;BME280;34421;48.944;9.460;2022-11-23T05:21:44;97215.13;;;5.87;74.50
48622;BME280;34421;48.944;9.460;2022-11-23T05:24:09;97223.06;;;5.87;74.12
48622;BME280;34421;48.944;9.460;2022-11-23T05:26:35;97221.03;;;5.89;74.33
48622;BME280;34421;48.944;9.460;2022-11-23T05:29:00;97222.44;;;5.85;75.58
48622;BME280;34421;48.944;9.460;2022-11-23T05:31:25;97227.72;;;5.85;74.90
48622;BME280;34421;48.944;9.460;2022-11-23T05:33:50;97228.94;;;5.89;75.46
48622;BME280;34421;48.944;9.460;2022-11-23T05:36:16;97217.34;;;5.90;75.15
48622;BME280;34421;48.944;9.460;2022-11-23T05:38:41;97209.03;;;5.93;75.68
48622;BME280;34421;48.944;9.460;2022-11-23T05:41:06;97211.66;;;5.93;75.79
48622;BME280;34421;48.944;9.460;2022-11-23T05:43:32;97209.03;;;5.93;75.48
48622;BME280;34421;48.944;9.460;2022-11-23T05:45:59;97205.34;;;5.94;75.49
48622;BME280;34421;48.944;9.460;2022-11-23T05:48:24;97204.94;;;5.90;74.52
48622;BME280;34421;48.944;9.460;2022-11-23T05:50:50;97206.97;;;5.88;75.72
48622;BME280;34421;48.944;9.460;2022-11-23T05:53:15;97203.34;;;5.83;75.54
48622;BME280;34421;48.944;9.460;2022-11-23T05:55:41;97202.16;;;5.79;74.76
48622;BME280;34421;48.944;9.460;2022-11-23T05:58:06;97204.59;;;5.74;75.96
48622;BME280;34421;48.944;9.460;2022-11-23T06:00:31;97216.41;;;5.71;75.60
48622;BME280;34421;48.944;9.460;2022-11-23T06:03:00;97212.94;;;5.70;75.39
48622;BME280;34421;48.944;9.460;2022-11-23T06:05:27;97211.53;;;5.68;75.44
48622;BME280;34421;48.944;9.460;2022-11-23T06:07:52;97204.03;;;5.65;75.46
48622;BME280;34421;48.944;9.460;2022-11-23T06:10:18;97211.16;;;5.64;76.11
48622;BME280;34421;48.944;9.460;2022-11-23T06:12:44;97210.75;;;5.61;76.14
48622;BME280;34421;48.944;9.460;2022-11-23T06:15:10;97211.41;;;5.56;75.44
48622;BME280;34421;48.944;9.460;2022-11-23T06:17:36;97212.63;;;5.54;74.91
48622;BME280;34421;48.944;9.460;2022-11-23T06:20:01;97214.66;;;5.52;76.21
48622;BME280;34421;48.944;9.460;2022-11-23T06:22:27;97218.34;;;5.51;76.10
48622;BME280;34421;48.944;9.460;2022-11-23T06:24:52;97210.81;;;5.47;75.45
48622;BME280;34421;48.944;9.460;2022-11-23T06:27:17;97212.06;;;5.45;75.19
48622;BME280;34421;48.944;9.460;2022-11-23T06:29:42;97204.56;;;5.42;75.46
48622;BME280;34421;48.944;9.460;2022-11-23T06:32:08;97204.34;;;5.37;75.24
48622;BME280;34421;48.944;9.460;2022-11-23T06:34:33;97221.03;;;5.31;75.35
48622;BME280;34421;48.944;9.460;2022-11-23T06:36:58;97219.81;;;5.27;74.81
48622;BME280;34421;48.944;9.460;2022-11-23T06:39:24;97216.56;;;5.24;75.13
48622;BME280;34421;48.944;9.460;2022-11-23T06:41:49;97216.19;;;5.21;74.65
48622;BME280;34421;48.944;9.460;2022-11-23T06:44:14;97212.94;;;5.19;75.63
48622;BME280;34421;48.944;9.460;2022-11-23T06:46:40;97216.41;;;5.13;74.63
48622;BME280;34421;48.944;9.460;2022-11-23T06:49:05;97226.16;;;5.12;76.05
48622;BME280;34421;48.944;9.460;2022-11-23T06:51:30;97221.28;;;5.09;74.33
48622;BME280;34421;48.944;9.460;2022-11-23T06:53:56;97224.91;;;5.08;75.70
48622;BME280;34421;48.944;9.460;2022-11-23T06:56:21;97228.56;;;5.07;75.01
48622;BME280;34421;48.944;9.460;2022-11-23T06:58:46;97228.38;;;5.02;74.76
48622;BME280;34421;48.944;9.460;2022-11-23T07:01:12;97232.03;;;5.01;75.52
48622;BME280;34421;48.944;9.460;2022-11-23T07:03:37;97237.50;;;4.99;74.89
48622;BME280;34421;48.944;9.460;2022-11-23T07:06:06;97237.09;;;4.96;75.44
48622;BME280;34421;48.944;9.460;2022-11-23T07:08:33;97236.31;;;4.95;74.00
48622;BME280;34421;48.944;9.460;2022-11-23T07:11:00;97241.78;;;4.94;74.19
48622;BME280;34421;48.944;9.460;2022-11-23T07:13:26;97250.31;;;4.89;75.56
48622;BME280;34421;48.944;9.460;2022-11-23T07:15:51;97253.13;;;4.88;74.77
48622;BME280;34421;48.944;9.460;2022-11-23T07:18:16;97253.75;;;4.90;75.10
48622;BME280;34421;48.944;9.460;2022-11-23T07:20:41;97253.97;;;4.88;74.62
48622;BME280;34421;48.944;9.460;2022-11-23T07:23:09;97260.06;;;4.89;73.61
48622;BME280;34421;48.944;9.460;2022-11-23T07:25:36;97258.41;;;4.88;74.18
48622;BME280;34421;48.944;9.460;2022-11-23T07:28:02;97264.31;;;4.90;75.07
48622;BME280;34421;48.944;9.460;2022-11-23T07:30:29;97262.69;;;4.95;74.26
48622;BME280;34421;48.944;9.460;2022-11-23T07:33:03;97257.22;;;4.97;74.33
48622;BME280;34421;48.944;9.460;2022-11-23T07:35:29;97266.13;;;4.96;73.28
48622;BME280;34421;48.944;9.460;2022-11-23T07:37:55;97253.56;;;4.98;74.33
48622;BME280;34421;48.944;9.460;2022-11-23T07:40:21;97255.16;;;4.99;73.17
48622;BME280;34421;48.944;9.460;2022-11-23T07:42:46;97261.44;;;5.05;73.58
48622;BME280;34421;48.944;9.460;2022-11-23T07:45:12;97258.00;;;5.11;74.42
48622;BME280;34421;48.944;9.460;2022-11-23T07:47:37;97257.41;;;5.15;73.36
48622;BME280;34421;48.944;9.460;2022-11-23T07:50:08;97260.00;;;5.22;74.85
48622;BME280;34421;48.944;9.460;2022-11-23T07:52:38;97261.81;;;5.28;74.17
48622;BME280;34421;48.944;9.460;2022-11-23T07:55:04;97262.44;;;5.37;73.25
48622;BME280;34421;48.944;9.460;2022-11-23T07:57:30;97264.84;;;5.45;73.17
48622;BME280;34421;48.944;9.460;2022-11-23T07:59:55;97270.91;;;5.52;73.26
48622;BME280;34421;48.944;9.460;2022-11-23T08:02:20;97273.94;;;5.56;74.33
48622;BME280;34421;48.944;9.460;2022-11-23T08:04:46;97267.66;;;5.57;74.29
48622;BME280;34421;48.944;9.460;2022-11-23T08:07:11;97269.09;;;5.59;73.34
48622;BME280;34421;48.944;9.460;2022-11-23T08:09:37;97268.66;;;5.62;74.00
48622;BME280;34421;48.944;9.460;2022-11-23T08:12:02;97260.09;;;5.67;74.38
48622;BME280;34421;48.944;9.460;2022-11-23T08:14:28;97268.41;;;5.70;73.97
48622;BME280;34421;48.944;9.460;2022-11-23T08:16:53;97261.91;;;5.73;74.69
48622;BME280;34421;48.944;9.460;2022-11-23T08:19:18;97258.03;;;5.76;74.08
48622;BME280;34421;48.944;9.460;2022-11-23T08:21:44;97262.72;;;5.80;74.21
48622;BME280;34421;48.944;9.460;2022-11-23T08:24:10;97270.22;;;5.83;74.06
48622;BME280;34421;48.944;9.460;2022-11-23T08:26:35;97272.03;;;5.89;74.33
48622;BME280;34421;48.944;9.460;2022-11-23T08:29:01;97261.88;;;5.93;73.69
48622;BME280;34421;48.944;9.460;2022-11-23T08:31:26;97271.59;;;5.99;74.84
48622;BME280;34421;48.944;9.460;2022-11-23T08:33:51;97260.19;;;6.05;74.56
48622;BME280;34421;48.944;9.460;2022-11-23T08:36:16;97262.19;;;6.10;73.91
48622;BME280;34421;48.944;9.460;2022-11-23T08:38:42;97258.91;;;6.14;73.85
48622;BME280;34421;48.944;9.460;2022-11-23T08:41:07;97268.63;;;6.21;75.13
48622;BME280;34421;48.944;9.460;2022-11-23T08:43:33;97265.13;;;6.27;73.81
48622;BME280;34421;48.944;9.460;2022-11-23T08:46:00;97274.25;;;6.37;74.39
48622;BME280;34421;48.944;9.460;2022-11-23T08:48:26;97268.28;;;6.49;73.69
48622;BME280;34421;48.944;9.460;2022-11-23T08:50:52;97276.34;;;6.60;73.92
48622;BME280;34421;48.944;9.460;2022-11-23T08:53:17;97268.28;;;6.74;74.12
48622;BME280;34421;48.944;9.460;2022-11-23T08:55:43;97264.34;;;6.83;74.60
48622;BME280;34421;48.944;9.460;2022-11-23T08:58:08;97269.59;;;6.90;74.29
48622;BME280;34421;48.944;9.460;2022-11-23T09:00:33;97263.66;;;6.94;74.52
48622;BME280;34421;48.944;9.460;2022-11-23T09:02:59;97271.53;;;7.01;74.11
48622;BME280;34421;48.944;9.460;2022-11-23T09:05:28;97266.78;;;7.10;74.48
48622;BME280;34421;48.944;9.460;2022-11-23T09:08:00;97268.94;;;7.19;74.25
48622;BME280;34421;48.944;9.460;2022-11-23T09:10:25;97267.41;;;7.30;74.33
48622;BME280;34421;48.944;9.460;2022-11-23T09:12:51;97269.91;;;7.43;73.96
48622;BME280;34421;48.944;9.460;2022-11-23T09:15:16;97261.69;;;7.51;73.27
48622;BME280;34421;48.944;9.460;2022-11-23T09:17:42;97266.91;;;7.58;73.31
48622;BME280;34421;48.944;9.460;2022-11-23T09:20:08;97262.13;;;7.67;73.76
48622;BME280;34421;48.944;9.460;2022-11-23T09:22:34;97255.94;;;7.73;72.90
48622;BME280;34421;48.944;9.460;2022-11-23T09:24:59;97265.22;;;7.82;72.50
48622;BME280;34421;48.944;9.460;2022-11-23T09:27:25;97265.97;;;7.89;71.74
48622;BME280;34421;48.944;9.460;2022-11-23T09:29:50;97264.19;;;8.02;71.65
48622;BME280;34421;48.944;9.460;2022-11-23T09:32:15;97264.44;;;8.12;71.42
48622;BME280;34421;48.944;9.460;2022-11-23T09:34:41;97263.13;;;8.21;71.22
48622;BME280;34421;48.944;9.460;2022-11-23T09:37:06;97260.72;;;8.31;70.63
48622;BME280;34421;48.944;9.460;2022-11-23T09:39:32;97260.00;;;8.42;70.13
48622;BME280;34421;48.944;9.460;2022-11-23T09:44:47;97271.78;;;8.58;68.89
48622;BME280;34421;48.944;9.460;2022-11-23T09:52:38;97263.72;;;8.65;68.50
48622;BME280;34421;48.944;9.460;2022-11-23T09:55:19;97263.72;;;8.65;67.71
48622;BME280;34421;48.944;9.460;2022-11-23T09:57:46;97254.38;;;8.62;67.49
48622;BME280;34421;48.944;9.460;2022-11-23T10:00:22;97257.88;;;8.63;67.54
48622;BME280;34421;48.944;9.460;2022-11-23T10:02:48;97261.53;;;8.62;67.68
48622;BME280;34421;48.944;9.460;2022-11-23T10:05:18;97265.81;;;8.63;66.98
48622;BME280;34421;48.944;9.460;2022-11-23T10:10:42;97261.53;;;8.62;67.69
48622;BME280;34421;48.944;9.460;2022-11-23T10:21:42;97254.97;;;8.64;66.94
48622;BME280;34421;48.944;9.460;2022-11-23T10:24:25;97252.09;;;8.66;66.46
48622;BME280;34421;48.944;9.460;2022-11-23T10:26:52;97246.78;;;8.66;65.46
48622;BME280;34421;48.944;9.460;2022-11-23T10:29:26;97245.16;;;8.65;65.84
48622;BME280;34421;48.944;9.460;2022-11-23T10:31:52;97233.28;;;8.67;64.94
48622;BME280;34421;48.944;9.460;2022-11-23T10:34:25;97236.28;;;8.71;64.82
48622;BME280;34421;48.944;9.460;2022-11-23T10:36:58;97234.22;;;8.73;65.75
48622;BME280;34421;48.944;9.460;2022-11-23T10:39:25;97232.38;;;8.74;65.19
48622;BME280;34421;48.944;9.460;2022-11-23T10:41:51;97235.16;;;8.79;65.17
48622;BME280;34421;48.944;9.460;2022-11-23T10:46:45;97235.03;;;8.85;64.72
48622;BME280;34421;48.944;9.460;2022-11-23T10:49:26;97222.13;;;8.89;65.16
48622;BME280;34421;48.944;9.460;2022-11-23T10:52:05;97224.31;;;8.92;65.05
48622;BME280;34421;48.944;9.460;2022-11-23T10:57:00;97223.38;;;8.98;63.84
48622;BME280;34421;48.944;9.460;2022-11-23T10:59:27;97215.00;;;9.01;64.43
48622;BME280;34421;48.944;9.460;2022-11-23T11:04:25;97219.13;;;9.09;63.87
48622;BME280;34421;48.944;9.460;2022-11-23T11:06:51;97222.94;;;9.13;64.30
48622;BME280;34421;48.944;9.460;2022-11-23T11:09:18;97219.84;;;9.16;63.62
48622;BME280;34421;48.944;9.460;2022-11-23T11:11:45;97216.72;;;9.19;63.24
48622;BME280;34421;48.944;9.460;2022-11-23T11:14:18;97218.66;;;9.24;62.82
48622;BME280;34421;48.944;9.460;2022-11-23T11:16:57;97215.06;;;9.30;63.09
48622;BME280;34421;48.944;9.460;2022-11-23T11:19:30;97218.06;;;9.33;62.91
48622;BME280;34421;48.944;9.460;2022-11-23T11:21:57;97206.97;;;9.36;63.67
48622;BME280;34421;48.944;9.460;2022-11-23T11:24:32;97202.84;;;9.41;62.62
48622;BME280;34421;48.944;9.460;2022-11-23T11:27:06;97200.50;;;9.44;63.34
48622;BME280;34421;48.944;9.460;2022-11-23T11:32:16;97196.91;;;9.50;63.01
48622;BME280;34421;48.944;9.460;2022-11-23T11:34:51;97190.91;;;9.55;62.83
48622;BME280;34421;48.944;9.460;2022-11-23T11:37:40;97196.31;;;9.60;62.23
48622;BME280;34421;48.944;9.460;2022-11-23T11:43:01;97198.50;;;9.63;61.27
48622;BME280;34421;48.944;9.460;2022-11-23T11:45:31;97192.97;;;9.65;61.01
48622;BME280;34421;48.944;9.460;2022-11-23T11:48:09;97190.41;;;9.70;61.36
48622;BME280;34421;48.944;9.460;2022-11-23T11:53:57;97191.28;;;9.75;58.79
48622;BME280;34421;48.944;9.460;2022-11-23T11:56:30;97191.41;;;9.80;58.71
48622;BME280;34421;48.944;9.460;2022-11-23T11:59:08;97183.19;;;9.82;57.52
48622;BME280;34421;48.944;9.460;2022-11-23T12:01:44;97181.09;;;9.84;57.57
48622;BME280;34421;48.944;9.460;2022-11-23T12:04:41;97177.75;;;9.89;57.30
48622;BME280;34421;48.944;9.460;2022-11-23T12:07:18;97180.72;;;9.92;55.40
48622;BME280;34421;48.944;9.460;2022-11-23T12:09:49;97179.44;;;9.95;55.05
48622;BME280;34421;48.944;9.460;2022-11-23T12:12:18;97175.25;;;9.99;54.74
48622;BME280;34421;48.944;9.460;2022-11-23T12:14:44;97169.25;;;10.03;54.38
48622;BME280;34421;48.944;9.460;2022-11-23T12:17:32;97165.84;;;10.08;55.59
48622;BME280;34421;48.944;9.460;2022-11-23T12:20:10;97163.75;;;10.10;53.96
48622;BME280;34421;48.944;9.460;2022-11-23T12:44:48;97146.94;;;10.50;51.12
48622;BME280;34421;48.944;9.460;2022-11-23T12:53:04;97135.22;;;10.68;51.32
48622;BME280;34421;48.944;9.460;2022-11-23T13:00:48;97144.94;;;10.79;49.91
48622;BME280;34421;48.944;9.460;2022-11-23T13:05:59;97147.47;;;10.86;49.97
48622;BME280;34421;48.944;9.460;2022-11-23T13:14:41;97135.09;;;11.62;48.92
48622;BME280;34421;48.944;9.460;2022-11-23T13:17:35;97128.78;;;11.91;48.41
48622;BME280;34421;48.944;9.460;2022-11-23T13:23:11;97123.28;;;12.29;46.83
48622;BME280;34421;48.944;9.460;2022-11-23T13:25:36;97133.84;;;12.46;47.00
48622;BME280;34421;48.944;9.460;2022-11-23T13:28:04;97127.84;;;12.66;46.75
48622;BME280;34421;48.944;9.460;2022-11-23T13:32:56;97118.69;;;12.94;45.91
48622;BME280;34421;48.944;9.460;2022-11-23T13:40:30;97125.78;;;13.21;45.18
48622;BME280;34421;48.944;9.460;2022-11-23T13:42:59;97117.78;;;13.26;44.08
48622;BME280;34421;48.944;9.460;2022-11-23T13:48:03;97109.88;;;13.41;44.88
48622;BME280;34421;48.944;9.460;2022-11-23T13:50:31;97114.97;;;13.48;44.71
48622;BME280;34421;48.944;9.460;2022-11-23T13:52:56;97118.97;;;13.56;44.53
48622;BME280;34421;48.944;9.460;2022-11-23T13:55:34;97114.72;;;13.65;45.12
48622;BME280;34421;48.944;9.460;2022-11-23T14:00:58;97100.84;;;13.73;43.95
48622;BME280;34421;48.944;9.460;2022-11-23T14:09:00;97092.34;;;13.97;45.09
48622;BME280;34421;48.944;9.460;2022-11-23T14:11:27;97091.28;;;14.08;44.54
48622;BME280;34421;48.944;9.460;2022-11-23T14:13:56;97084.88;;;14.14;44.02
48622;BME280;34421;48.944;9.460;2022-11-23T14:17:00;97080.34;;;14.25;44.19
48622;BME280;34421;48.944;9.460;2022-11-23T14:20:01;97074.16;;;14.24;44.28
48622;BME280;34421;48.944;9.460;2022-11-23T14:25:22;97054.88;;;14.12;44.04
48622;BME280;34421;48.944;9.460;2022-11-23T14:28:06;97063.19;;;14.10;44.17
48622;BME280;34421;48.944;9.460;2022-11-23T14:41:19;97048.66;;;12.92;45.27
48622;BME280;34421;48.944;9.460;2022-11-23T14:43:46;97055.25;;;12.74;45.62
48622;BME280;34421;48.944;9.460;2022-11-23T14:46:17;97066.13;;;12.63;45.87
48622;BME280;34421;48.944;9.460;2022-11-23T14:48:44;97061.78;;;12.51;45.99
48622;BME280;34421;48.944;9.460;2022-11-23T14:51:23;97058.22;;;12.36;46.26
48622;BME280;34421;48.944;9.460;2022-11-23T14:53:55;97060.53;;;12.27;46.13
48622;BME280;34421;48.944;9.460;2022-11-23T14:56:30;97057.25;;;12.15;46.74
48622;BME280;34421;48.944;9.460;2022-11-23T14:59:01;97053.44;;;12.05;46.96
48622;BME280;34421;48.944;9.460;2022-11-23T15:01:27;97043.75;;;11.94;47.09
48622;BME280;34421;48.944;9.460;2022-11-23T15:03:59;97049.97;;;11.78;47.86
48622;BME280;34421;48.944;9.460;2022-11-23T15:06:32;97048.94;;;11.57;48.09
48622;BME280;34421;48.944;9.460;2022-11-23T15:11:45;97048.03;;;11.19;50.14
48622;BME280;34421;48.944;9.460;2022-11-23T15:14:24;97045.19;;;11.04;50.51
48622;BME280;34421;48.944;9.460;2022-11-23T15:16:50;97044.97;;;10.88;50.30